Time;durP1;ratioP1;P1;durP2;ratioP2;P2;SDS_P1;SDS_P2;PMS_P1;PMS_P2;Temp;Humidity;BMP_temperature;BMP_pressure;BME280_temperature;BME280_humidity;BME280_pressure;Samples;Min_cycle;Max_cycle;Signal;HPM_P1;HPM_P2
2022/03/26 00:02:18;;;;;;;206.23;183.68;;;;;;;16.55;28.20;94546.22;5153935;27;20518;-64
2022/03/26 00:04:43;;;;;;;205.02;182.82;;;;;;;16.54;28.05;94552.81;5160277;27;20557;-64
2022/03/26 00:07:09;;;;;;;202.38;179.68;;;;;;;16.52;28.32;94545.13;5154223;27;20046;-64
2022/03/26 00:09:35;;;;;;;199.75;177.52;;;;;;;16.53;28.12;94537.81;5158885;27;20038;-65
2022/03/26 00:12:00;;;;;;;201.18;179.15;;;;;;;16.53;28.13;94543.97;5161511;27;20504;-64
2022/03/26 00:14:26;;;;;;;203.75;181.45;;;;;;;16.52;28.34;94539.75;5162244;27;20121;-64
2022/03/26 00:16:51;;;;;;;202.07;179.75;;;;;;;16.53;28.20;94543.97;5158055;27;20046;-64
2022/03/26 00:19:17;;;;;;;203.65;181.30;;;;;;;16.52;28.14;94537.03;5158122;27;20058;-64
2022/03/26 00:21:45;;;;;;;206.90;184.15;;;;;;;16.52;28.22;94538.97;5144639;27;20038;-64
2022/03/26 00:24:12;;;;;;;211.07;187.98;;;;;;;16.51;28.14;94542.88;5149431;27;20027;-65
2022/03/26 00:26:38;;;;;;;207.25;184.55;;;;;;;16.50;28.14;94538.66;5151812;27;20070;-65
2022/03/26 00:29:04;;;;;;;205.70;183.20;;;;;;;16.50;28.10;94541.34;5155010;27;20089;-64
2022/03/26 00:31:33;;;;;;;200.05;178.07;;;;;;;16.50;28.14;94542.13;5158032;27;20510;-64
2022/03/26 00:33:59;;;;;;;205.85;180.32;;;;;;;16.49;28.28;94535.19;5150266;27;20117;-64
2022/03/26 00:36:24;;;;;;;207.68;185.02;;;;;;;16.49;28.12;94535.19;5163009;27;20126;-64
2022/03/26 00:38:50;;;;;;;198.15;175.27;;;;;;;16.50;28.22;94536.72;5151886;27;20042;-64
2022/03/26 00:41:15;;;;;;;201.88;179.65;;;;;;;16.48;28.28;94528.28;5158553;27;20053;-64
2022/03/26 00:43:41;;;;;;;206.15;182.00;;;;;;;16.48;28.28;94531.00;5158039;27;20042;-64
2022/03/26 00:46:06;;;;;;;199.27;175.90;;;;;;;16.47;28.27;94526.78;5158619;27;20476;-65
2022/03/26 00:48:33;;;;;;;204.60;175.48;;;;;;;16.48;28.27;94529.03;5154409;27;20042;-64
2022/03/26 00:50:58;;;;;;;199.77;177.68;;;;;;;16.47;28.28;94524.84;5164606;27;20034;-64
2022/03/26 00:53:24;;;;;;;203.88;181.55;;;;;;;16.47;28.26;94521.38;5158337;27;20107;-64
2022/03/26 00:55:49;;;;;;;202.50;180.18;;;;;;;16.47;28.29;94524.06;5161368;27;20043;-64
2022/03/26 00:58:15;;;;;;;201.20;178.95;;;;;;;16.47;28.36;94522.13;5167507;27;20495;-65
2022/03/26 01:00:42;;;;;;;207.18;184.73;;;;;;;16.47;28.36;94515.97;5164947;27;20073;-64
2022/03/26 01:03:09;;;;;;;199.77;177.88;;;;;;;16.46;28.28;94514.47;5162370;27;20070;-64
2022/03/26 01:05:35;;;;;;;201.38;179.13;;;;;;;16.47;28.40;94519.44;5160501;27;20106;-64
2022/03/26 01:08:01;;;;;;;202.50;180.20;;;;;;;16.44;28.34;94512.19;5160470;27;20049;-65
2022/03/26 01:10:27;;;;;;;203.00;180.68;;;;;;;16.47;28.38;94518.69;5164221;27;20580;-64
2022/03/26 01:12:53;;;;;;;199.95;177.25;;;;;;;16.46;28.32;94514.47;5159322;27;20482;-64
2022/03/26 01:15:20;;;;;;;198.30;173.07;;;;;;;16.45;28.31;94510.25;5163141;27;20045;-64
2022/03/26 01:17:46;;;;;;;200.48;178.13;;;;;;;16.45;28.36;94510.25;5160468;27;20042;-64
2022/03/26 01:20:12;;;;;;;203.45;180.48;;;;;;;16.46;28.34;94509.06;5160062;27;20042;-64
2022/03/26 01:22:38;;;;;;;199.63;177.88;;;;;;;16.45;28.41;94504.84;5161965;27;20050;-64
2022/03/26 01:25:05;;;;;;;195.38;173.82;;;;;;;16.45;28.28;94513.72;5155415;27;20057;-64
2022/03/26 01:27:31;;;;;;;199.27;176.48;;;;;;;16.44;28.33;94516.84;5135822;27;20499;-65
2022/03/26 01:29:57;;;;;;;197.05;173.63;;;;;;;16.44;28.42;94509.50;5160943;27;20169;-64
2022/03/26 01:32:23;;;;;;;195.23;173.75;;;;;;;16.43;28.41;94513.38;5162882;27;20689;-65
2022/03/26 01:34:49;;;;;;;200.25;178.18;;;;;;;16.41;28.30;94515.75;5161710;27;20053;-64
2022/03/26 01:37:16;;;;;;;206.15;183.77;;;;;;;16.42;28.36;94519.22;5162191;27;20039;-64
2022/03/26 01:39:43;;;;;;;198.80;176.13;;;;;;;16.43;28.37;94521.47;5163208;27;20035;-65
2022/03/26 01:42:09;;;;;;;200.98;178.77;;;;;;;16.42;28.29;94516.50;5163463;27;20107;-64
2022/03/26 01:44:36;;;;;;;199.85;177.23;;;;;;;16.42;28.35;94517.28;5159713;27;20322;-64
2022/03/26 01:47:03;;;;;;;199.65;177.25;;;;;;;16.41;28.31;94520.41;5162311;27;20038;-64
2022/03/26 01:49:30;;;;;;;203.43;181.05;;;;;;;16.41;28.29;94523.09;5149534;27;20039;-63
2022/03/26 01:51:57;;;;;;;199.48;177.18;;;;;;;16.41;28.31;94523.09;5155635;27;20049;-65
2022/03/26 01:54:24;;;;;;;197.07;172.85;;;;;;;16.40;28.23;94527.75;5154408;27;20053;-64
2022/03/26 01:56:49;;;;;;;199.50;176.65;;;;;;;16.39;28.39;94515.44;5162583;27;20045;-64
2022/03/26 01:59:15;;;;;;;201.07;177.02;;;;;;;16.39;28.25;94515.44;5163313;27;20043;-64
2022/03/26 02:01:42;;;;;;;198.75;175.95;;;;;;;16.39;28.32;94517.38;5160369;27;20031;-64
2022/03/26 02:04:08;;;;;;;201.88;179.35;;;;;;;16.40;28.10;94529.69;5162647;27;20114;-64
2022/03/26 02:06:36;;;;;;;203.10;180.55;;;;;;;16.39;28.48;94517.38;5165899;27;20494;-64
2022/03/26 02:09:20;;;;;;;201.30;178.85;;;;;;;16.39;28.29;94530.88;5166993;27;20093;-64
2022/03/26 02:11:46;;;;;;;201.00;176.05;;;;;;;16.38;28.30;94519.31;5152037;27;20034;-64
2022/03/26 02:14:13;;;;;;;199.77;175.02;;;;;;;16.38;28.31;94516.63;5155182;27;20049;-64
2022/03/26 02:16:41;;;;;;;201.63;179.45;;;;;;;16.37;28.57;94525.91;5161020;27;20071;-64
2022/03/26 02:19:08;;;;;;;202.43;177.43;;;;;;;16.37;28.33;94525.16;5162993;27;20050;-64
2022/03/26 02:21:35;;;;;;;198.73;176.93;;;;;;;16.36;28.45;94524.38;5161181;27;20037;-64
2022/03/26 02:24:03;;;;;;;202.95;179.02;;;;;;;16.36;28.30;94532.50;5156359;27;20060;-64
2022/03/26 02:26:30;;;;;;;212.45;187.60;;;;;;;16.36;28.32;94526.31;5153818;27;20815;-64
2022/03/26 02:28:57;;;;;;;200.43;178.38;;;;;;;16.35;28.32;94525.56;5159093;27;20050;-64
2022/03/26 02:31:26;;;;;;;198.23;172.90;;;;;;;16.35;28.37;94532.91;5153741;27;20685;-64
2022/03/26 02:33:52;;;;;;;212.70;185.02;;;;;;;16.36;28.45;94535.19;5161099;27;20034;-64
2022/03/26 02:36:18;;;;;;;199.88;177.60;;;;;;;16.35;28.40;94525.56;5160911;27;20046;-64
2022/03/26 02:38:44;;;;;;;199.65;177.57;;;;;;;16.34;28.31;94534.09;5162382;27;20030;-64
2022/03/26 02:41:09;;;;;;;204.40;181.95;;;;;;;16.34;28.41;94531.41;5134928;27;20031;-64
2022/03/26 02:43:35;;;;;;;201.40;179.20;;;;;;;16.35;28.37;94527.50;5156139;27;20506;-64
2022/03/26 02:46:01;;;;;;;208.40;185.32;;;;;;;16.34;28.33;94532.16;5157025;27;20049;-64
2022/03/26 02:48:27;;;;;;;201.82;179.45;;;;;;;16.34;28.45;94526.75;5153917;27;20034;-64
2022/03/26 02:50:53;;;;;;;201.70;179.25;;;;;;;16.34;28.33;94526.00;5164290;27;20414;-65
2022/03/26 02:53:19;;;;;;;198.90;174.93;;;;;;;16.33;28.40;94532.59;5153648;27;20069;-64
2022/03/26 02:55:44;;;;;;;197.15;175.40;;;;;;;16.32;28.37;94536.47;5159974;27;20035;-64
2022/03/26 02:58:10;;;;;;;201.80;178.25;;;;;;;16.32;28.41;94542.63;5158412;27;20042;-64
2022/03/26 03:00:38;;;;;;;199.95;175.00;;;;;;;16.32;28.53;94539.16;5164473;27;20479;-65
2022/03/26 03:03:04;;;;;;;197.93;175.85;;;;;;;16.31;28.46;94546.50;5159020;27;20046;-65
2022/03/26 03:05:30;;;;;;;200.27;177.77;;;;;;;16.29;28.33;94543.47;5152999;27;20026;-64
2022/03/26 03:07:56;;;;;;;200.25;178.05;;;;;;;16.31;28.35;94543.81;5157888;27;20057;-65
2022/03/26 03:10:23;;;;;;;207.75;185.25;;;;;;;16.30;28.45;94542.31;5152333;27;20061;-65
2022/03/26 03:12:49;;;;;;;198.77;174.68;;;;;;;16.31;28.25;94543.06;5149402;27;20158;-64
2022/03/26 03:15:17;;;;;;;198.88;176.57;;;;;;;16.28;28.27;94541.97;5154032;27;20042;-64
2022/03/26 03:17:44;;;;;;;206.70;184.10;;;;;;;16.29;28.29;94534.63;5160919;27;20067;-64
2022/03/26 03:20:10;;;;;;;204.07;181.82;;;;;;;16.29;28.49;94538.09;5163369;27;20034;-65
2022/03/26 03:22:37;;;;;;;202.02;178.98;;;;;;;16.28;28.53;94533.88;5156501;27;20038;-64
2022/03/26 03:25:03;;;;;;;195.40;170.85;;;;;;;16.28;28.27;94544.66;5155037;27;20050;-64
2022/03/26 03:27:29;;;;;;;196.77;172.80;;;;;;;16.29;28.29;94540.03;5155861;27;20154;-64
2022/03/26 03:29:55;;;;;;;206.23;181.55;;;;;;;16.29;28.47;94542.72;5152840;27;20605;-64
2022/03/26 03:32:20;;;;;;;203.18;180.82;;;;;;;16.28;28.26;94539.28;5158866;27;20514;-64
2022/03/26 03:34:46;;;;;;;198.85;175.63;;;;;;;16.29;28.46;94537.31;5160814;27;20051;-65
2022/03/26 03:37:11;;;;;;;204.48;180.80;;;;;;;16.27;28.42;94535.06;5153010;27;20059;-64
2022/03/26 03:39:37;;;;;;;199.50;177.43;;;;;;;16.26;28.31;94535.50;5157438;27;20042;-64
2022/03/26 03:42:03;;;;;;;200.80;177.38;;;;;;;16.26;28.41;94544.34;5159892;27;20039;-64
2022/03/26 03:44:30;;;;;;;201.82;179.02;;;;;;;16.26;28.33;94540.88;5154837;27;20243;-64
2022/03/26 03:46:56;;;;;;;197.15;173.50;;;;;;;16.26;28.15;94544.34;5153064;27;20416;-64
2022/03/26 03:49:22;;;;;;;204.80;179.52;;;;;;;16.26;28.28;94548.97;5157629;27;20786;-65
2022/03/26 03:51:47;;;;;;;198.75;176.82;;;;;;;16.25;28.46;94544.81;5136730;27;20109;-64
2022/03/26 03:54:14;;;;;;;200.18;175.60;;;;;;;16.26;28.33;94538.19;5158456;27;20046;-65
2022/03/26 03:56:39;;;;;;;204.60;182.00;;;;;;;16.25;28.40;94542.09;5166697;27;20047;-64
2022/03/26 03:59:05;;;;;;;200.48;178.50;;;;;;;16.24;28.41;94544.03;5164174;27;20064;-64
2022/03/26 04:01:31;;;;;;;198.57;175.65;;;;;;;16.25;28.37;94534.72;5154329;27;20054;-64
2022/03/26 04:03:57;;;;;;;213.68;186.05;;;;;;;16.23;28.47;94537.13;5154397;27;20034;-64
2022/03/26 04:06:23;;;;;;;201.80;179.60;;;;;;;16.24;28.42;94544.03;5162417;27;20110;-64
2022/03/26 04:08:49;;;;;;;205.30;181.02;;;;;;;16.23;28.06;94539.81;5152805;27;20049;-64
2022/03/26 04:11:14;;;;;;;199.23;176.40;;;;;;;16.24;28.47;94538.66;5157504;27;20038;-64
2022/03/26 04:13:40;;;;;;;205.25;181.50;;;;;;;16.23;28.54;94534.44;5152860;27;20137;-64
2022/03/26 04:16:05;;;;;;;201.80;179.48;;;;;;;16.23;28.42;94537.13;5154542;27;20475;-64
2022/03/26 04:18:31;;;;;;;195.73;172.50;;;;;;;16.23;28.53;94526.34;5151696;27;20095;-65
2022/03/26 04:20:57;;;;;;;201.30;175.82;;;;;;;16.22;28.35;94529.47;5163598;27;20038;-64
2022/03/26 04:23:24;;;;;;;198.65;172.23;;;;;;;16.23;28.51;94537.13;5159326;27;20111;-64
2022/03/26 04:25:49;;;;;;;203.60;181.13;;;;;;;16.21;28.26;94534.09;5164238;27;20041;-64
2022/03/26 04:28:15;;;;;;;205.07;182.38;;;;;;;16.22;28.68;94545.66;5158683;27;20039;-64
2022/03/26 04:30:41;;;;;;;200.50;175.43;;;;;;;16.21;28.51;94546.84;5162379;27;20098;-64
2022/03/26 04:33:06;;;;;;;193.80;168.48;;;;;;;16.18;28.36;94545.00;5160110;27;20703;-64
2022/03/26 04:35:32;;;;;;;201.38;179.13;;;;;;;16.20;28.52;94543.38;5159525;27;20073;-64
2022/03/26 04:37:57;;;;;;;195.32;172.25;;;;;;;16.20;28.41;94543.38;5165337;27;20140;-65
2022/03/26 04:40:24;;;;;;;203.07;179.35;;;;;;;16.21;28.52;94546.84;5159964;27;20042;-64
2022/03/26 04:42:50;;;;;;;198.57;176.48;;;;;;;16.19;28.40;94533.78;5154721;27;20039;-64
2022/03/26 04:45:16;;;;;;;199.30;175.68;;;;;;;16.20;28.52;94543.38;5161028;27;20113;-64
2022/03/26 04:47:42;;;;;;;199.77;176.75;;;;;;;16.21;28.44;94549.53;5157704;27;20054;-64
2022/03/26 04:50:08;;;;;;;199.20;176.25;;;;;;;16.19;28.57;94560.00;5162424;27;20045;-64
2022/03/26 04:52:34;;;;;;;199.32;175.57;;;;;;;16.19;28.64;94566.16;5152747;27;20038;-64
2022/03/26 04:55:00;;;;;;;198.43;173.80;;;;;;;16.19;28.49;94562.69;5159651;27;20063;-64
2022/03/26 04:57:26;;;;;;;199.55;176.45;;;;;;;16.18;28.63;94563.88;5166765;27;20090;-64
2022/03/26 04:59:51;;;;;;;197.68;174.80;;;;;;;16.18;28.59;94566.59;5161846;27;20121;-64
2022/03/26 05:02:17;;;;;;;200.98;178.68;;;;;;;16.18;28.64;94563.88;5155513;27;20372;-65
2022/03/26 05:04:42;;;;;;;199.55;176.50;;;;;;;16.19;28.43;94560.00;5162141;27;20046;-65
2022/03/26 05:09:53;;;;;;;200.13;175.77;;;;;;;16.20;28.43;94559.56;5161930;27;20182;-65
2022/03/26 05:12:19;;;;;;;200.85;174.23;;;;;;;16.23;28.18;94553.31;5166348;27;20057;-64
2022/03/26 05:14:44;;;;;;;200.38;178.27;;;;;;;16.23;28.28;94555.25;5158835;27;20034;-64
2022/03/26 05:17:10;;;;;;;201.68;178.95;;;;;;;16.24;28.48;94564.88;5157788;27;20043;-64
2022/03/26 05:19:36;;;;;;;196.60;172.25;;;;;;;16.24;28.22;94573.72;5149399;27;20077;-64
2022/03/26 05:22:02;;;;;;;195.52;172.60;;;;;;;16.25;28.36;94567.13;5141890;27;20030;-64
2022/03/26 05:24:27;;;;;;;203.27;179.05;;;;;;;16.26;28.28;94560.53;5157417;27;20122;-65
2022/03/26 05:26:53;;;;;;;201.77;179.30;;;;;;;16.25;28.18;94548.22;5137032;27;20567;-65
2022/03/26 05:29:18;;;;;;;199.48;174.63;;;;;;;16.26;28.31;94549.75;5158045;27;20050;-64
2022/03/26 05:31:44;;;;;;;202.15;176.82;;;;;;;16.29;28.21;94553.53;5165686;27;20042;-64
2022/03/26 05:34:09;;;;;;;200.82;176.70;;;;;;;16.28;28.28;94554.72;5156392;27;20034;-64
2022/03/26 05:36:35;;;;;;;216.50;190.35;;;;;;;16.29;28.15;94562.38;5153468;27;20049;-64
2022/03/26 05:39:01;;;;;;;200.43;174.23;;;;;;;16.29;28.23;94569.72;5166061;27;20090;-65
2022/03/26 05:41:27;;;;;;;200.80;178.48;;;;;;;16.30;28.26;94566.59;5157883;27;20506;-64
2022/03/26 05:43:53;;;;;;;213.75;188.70;;;;;;;16.32;28.20;94574.25;5149463;27;20046;-64
2022/03/26 05:46:19;;;;;;;201.13;178.45;;;;;;;16.32;28.19;94574.25;5154294;27;20046;-65
2022/03/26 05:48:45;;;;;;;201.65;177.65;;;;;;;16.32;28.24;94574.25;5158120;27;20715;-64
2022/03/26 05:51:11;;;;;;;202.32;177.52;;;;;;;16.32;28.32;94580.41;5159208;27;20053;-64
2022/03/26 05:53:37;;;;;;;201.98;179.82;;;;;;;16.32;28.13;94574.25;5155469;27;20126;-64
2022/03/26 05:56:03;;;;;;;201.98;179.52;;;;;;;16.30;28.19;94579.31;5150897;27;20046;-65
2022/03/26 05:58:28;;;;;;;200.85;178.63;;;;;;;16.31;28.18;94578.91;5158376;27;20447;-64
2022/03/26 06:00:54;;;;;;;200.50;178.32;;;;;;;16.32;28.15;94580.41;5141340;27;20060;-65
2022/03/26 06:03:19;;;;;;;203.27;180.95;;;;;;;16.33;28.34;94571.13;5156866;27;20034;-65
2022/03/26 06:05:46;;;;;;;203.18;180.75;;;;;;;16.34;28.33;94577.28;5155850;27;20034;-65
2022/03/26 06:08:11;;;;;;;199.60;175.35;;;;;;;16.32;28.26;94574.25;5156665;27;20042;-65
2022/03/26 06:10:37;;;;;;;201.75;179.50;;;;;;;16.33;28.26;94581.94;5156685;27;20098;-64
2022/03/26 06:13:02;;;;;;;198.55;175.25;;;;;;;16.33;28.26;94581.94;5156604;27;20080;-65
2022/03/26 06:15:28;;;;;;;205.05;181.98;;;;;;;16.33;28.35;94584.63;5153409;27;20417;-64
2022/03/26 06:17:54;;;;;;;200.52;178.15;;;;;;;16.34;28.27;94580.75;5158600;27;20128;-64
2022/03/26 06:20:19;;;;;;;214.50;188.45;;;;;;;16.34;28.25;94588.09;5161142;27;20046;-62
2022/03/26 06:22:45;;;;;;;198.27;176.38;;;;;;;16.34;28.46;94588.84;5157484;27;20046;-63
2022/03/26 06:25:10;;;;;;;205.70;183.10;;;;;;;16.33;28.44;94589.28;5165671;27;20046;-66
2022/03/26 06:27:36;;;;;;;204.20;181.52;;;;;;;16.32;28.38;94599.31;5155064;27;20038;-66
2022/03/26 06:30:02;;;;;;;207.75;184.90;;;;;;;16.32;28.59;94591.22;5154502;27;20053;-64
2022/03/26 06:32:28;;;;;;;211.98;188.75;;;;;;;16.34;28.52;94598.88;5157265;27;20513;-64
2022/03/26 06:34:54;;;;;;;210.68;187.65;;;;;;;16.33;28.50;94590.03;5157627;27;20037;-64
2022/03/26 06:37:21;;;;;;;211.00;187.95;;;;;;;16.34;28.40;94598.88;5156728;27;20082;-64
2022/03/26 06:39:46;;;;;;;204.57;181.68;;;;;;;16.35;28.45;94595.00;5170513;27;20030;-65
2022/03/26 06:42:12;;;;;;;204.30;181.80;;;;;;;16.35;28.49;94597.69;5156694;27;20053;-66
2022/03/26 06:44:37;;;;;;;205.02;180.98;;;;;;;16.36;28.49;94593.81;5158292;27;20057;-64
2022/03/26 06:47:04;;;;;;;203.57;180.50;;;;;;;16.36;28.56;94599.97;5165389;27;20443;-66
2022/03/26 06:49:31;;;;;;;208.93;185.80;;;;;;;16.35;28.53;94598.44;5152458;27;20043;-63
2022/03/26 06:51:58;;;;;;;207.40;184.63;;;;;;;16.36;28.43;94602.66;5157260;27;20137;-64
2022/03/26 06:54:23;;;;;;;210.85;187.63;;;;;;;16.36;28.44;94597.28;5157944;27;20042;-65
2022/03/26 06:56:49;;;;;;;208.30;185.48;;;;;;;16.36;28.66;94599.97;5164350;27;20043;-65
2022/03/26 06:59:14;;;;;;;208.90;185.43;;;;;;;16.38;28.55;94602.25;5154767;27;20158;-63
2022/03/26 07:01:41;;;;;;;208.43;185.60;;;;;;;16.36;28.42;94594.56;5157508;27;20038;-63
2022/03/26 07:04:07;;;;;;;208.27;185.52;;;;;;;16.37;28.53;94604.19;5137277;27;20490;-62
2022/03/26 07:06:32;;;;;;;206.20;183.35;;;;;;;16.38;28.49;94604.94;5159555;27;20038;-62
2022/03/26 07:09:00;;;;;;;202.02;179.32;;;;;;;16.37;28.63;94604.19;5154305;27;20085;-63
2022/03/26 07:11:25;;;;;;;200.05;177.85;;;;;;;16.37;28.64;94604.19;5161562;27;20080;-63
2022/03/26 07:13:51;;;;;;;223.23;198.63;;;;;;;16.35;28.67;94601.16;5159740;27;20082;-64
2022/03/26 07:16:17;;;;;;;208.20;185.50;;;;;;;16.38;28.62;94597.59;5160421;27;20043;-65
2022/03/26 07:18:42;;;;;;;211.70;188.40;;;;;;;16.37;28.57;94598.78;5154802;27;20043;-64
2022/03/26 07:21:08;;;;;;;204.07;181.63;;;;;;;16.37;28.69;94598.78;5165633;27;20100;-66
2022/03/26 07:23:34;;;;;;;203.75;180.32;;;;;;;16.37;28.62;94611.53;5154757;27;20042;-64
2022/03/26 07:26:01;;;;;;;199.95;177.32;;;;;;;16.37;28.72;94612.28;5159739;27;20042;-65
2022/03/26 07:28:26;;;;;;;206.45;183.63;;;;;;;16.35;28.73;94616.59;5153836;27;20038;-64
2022/03/26 07:30:52;;;;;;;210.75;185.63;;;;;;;14.71;32.12;94625.97;5166054;27;20063;-67
2022/03/26 07:33:18;;;;;;;202.77;177.52;;;;;;;14.73;32.58;94618.25;5152395;27;20053;-64
2022/03/26 07:35:44;;;;;;;197.80;173.50;;;;;;;15.14;31.57;94622.31;5152744;27;20066;-63
2022/03/26 07:38:11;;;;;;;208.05;179.50;;;;;;;15.28;31.10;94619.31;5161774;27;20042;-64
2022/03/26 07:40:36;;;;;;;228.05;194.65;;;;;;;15.34;30.93;94625.72;5160584;27;20084;-64
2022/03/26 07:43:02;;;;;;;216.38;187.23;;;;;;;14.52;32.74;94631.38;5151603;27;20066;-67
2022/03/26 07:45:28;;;;;;;216.45;186.32;;;;;;;13.66;34.86;94629.50;5155376;27;20171;-66
2022/03/26 07:47:54;;;;;;;218.48;184.82;;;;;;;13.55;35.65;94631.63;5158168;27;20038;-70
2022/03/26 07:50:19;;;;;;;241.35;205.02;;;;;;;13.29;35.94;94630.50;5152495;27;20054;-70
2022/03/26 07:52:45;;;;;;;247.70;219.68;;;;;;;13.23;35.59;94634.81;5158408;27;20050;-70
2022/03/26 07:55:11;;;;;;;243.73;196.30;;;;;;;13.27;37.28;94635.53;5149977;27;20386;-72
2022/03/26 07:57:37;;;;;;;247.52;189.93;;;;;;;13.60;35.82;94636.53;5163239;27;20050;-69
2022/03/26 08:00:05;;;;;;;232.70;195.05;;;;;;;13.61;35.87;94635.38;5159564;27;20458;-70
2022/03/26 08:02:30;;;;;;;236.02;194.68;;;;;;;13.57;36.20;94632.75;5161360;27;20095;-70
2022/03/26 08:04:55;;;;;;;221.95;182.93;;;;;;;13.62;35.66;94626.91;5153835;27;20043;-71
2022/03/26 08:07:21;;;;;;;216.35;176.85;;;;;;;13.52;35.91;94633.97;5154972;27;20597;-70
2022/03/26 08:09:47;;;;;;;198.88;160.98;;;;;;;13.44;36.00;94637.94;5156688;27;20034;-72
2022/03/26 08:12:13;;;;;;;211.77;168.40;;;;;;;13.50;36.32;94636.31;5156984;27;20087;-71
2022/03/26 08:14:39;;;;;;;206.82;161.75;;;;;;;13.54;37.09;94633.56;5129970;27;20085;-73
2022/03/26 08:17:04;;;;;;;193.75;152.40;;;;;;;13.50;36.58;94641.66;5135755;27;20497;-70
2022/03/26 08:19:32;;;;;;;203.07;160.63;;;;;;;13.59;37.16;94643.84;5121519;27;20054;-68
2022/03/26 08:21:58;;;;;;;208.98;170.27;;;;;;;13.57;37.17;94643.50;5137329;27;20050;-70
2022/03/26 08:24:23;;;;;;;206.20;166.52;;;;;;;13.57;38.34;94638.13;5152756;27;20069;-69
2022/03/26 08:26:48;;;;;;;218.40;175.25;;;;;;;13.72;38.13;94643.97;5156932;27;20035;-69
2022/03/26 08:29:14;;;;;;;215.88;173.85;;;;;;;13.64;37.01;94640.69;5154236;27;20058;-68
2022/03/26 08:31:40;;;;;;;206.75;166.35;;;;;;;13.62;37.05;94642.25;5156360;27;20846;-69
2022/03/26 08:34:05;;;;;;;209.70;170.02;;;;;;;13.67;37.16;94639.06;5154137;27;20049;-69
2022/03/26 08:36:31;;;;;;;222.70;177.85;;;;;;;13.83;36.52;94639.94;5140181;27;20401;-68
2022/03/26 08:38:57;;;;;;;215.43;175.32;;;;;;;14.08;37.36;94639.50;5153205;27;20052;-69
2022/03/26 08:41:23;;;;;;;226.57;175.13;;;;;;;14.08;36.62;94639.50;5157801;27;20057;-70
2022/03/26 08:43:50;;;;;;;248.85;198.02;;;;;;;14.15;36.25;94639.38;5156821;27;20236;-67
2022/03/26 08:46:17;;;;;;;214.95;176.10;;;;;;;14.16;35.67;94642.81;5153370;27;20469;-66
2022/03/26 08:48:42;;;;;;;212.77;172.15;;;;;;;14.13;34.96;94638.28;5131219;27;20057;-64
2022/03/26 08:51:08;;;;;;;207.68;171.63;;;;;;;14.20;35.07;94640.06;5155951;27;20389;-67
2022/03/26 08:53:33;;;;;;;220.32;172.82;;;;;;;14.42;35.95;94635.81;5148089;27;20047;-65
2022/03/26 08:55:59;;;;;;;224.35;181.43;;;;;;;14.44;35.07;94638.84;5149576;27;20126;-68
2022/03/26 08:58:25;;;;;;;209.50;165.05;;;;;;;14.44;35.34;94644.22;5160040;27;20080;-67
2022/03/26 09:00:51;;;;;;;205.25;165.93;;;;;;;14.45;34.53;94634.97;5156788;27;20096;-69
2022/03/26 09:03:20;;;;;;;208.25;169.27;;;;;;;14.35;34.88;94642.03;5155577;27;20042;-68
2022/03/26 09:05:52;;;;;;;205.65;168.40;;;;;;;14.40;34.89;94638.13;5135430;27;20606;-68
2022/03/26 09:08:19;;;;;;;209.25;166.25;;;;;;;14.29;35.69;94632.97;5137391;27;20058;-69
2022/03/26 09:10:45;;;;;;;204.02;166.75;;;;;;;14.40;35.15;94641.56;5156727;27;20050;-70
2022/03/26 09:13:11;;;;;;;212.88;171.02;;;;;;;14.31;34.61;94632.53;5155313;27;20039;-69
2022/03/26 09:15:37;;;;;;;197.85;162.30;;;;;;;14.18;34.12;94622.41;5149113;27;20034;-72
2022/03/26 09:18:04;;;;;;;227.93;187.57;;;;;;;14.23;34.44;94629.25;5155762;27;20045;-70
2022/03/26 09:20:29;;;;;;;206.65;170.77;;;;;;;14.24;34.07;94630.00;5152670;27;20046;-70
2022/03/26 09:22:55;;;;;;;198.65;164.50;;;;;;;14.36;34.29;94621.28;5157107;27;20712;-71
2022/03/26 09:25:21;;;;;;;206.02;167.63;;;;;;;14.41;34.25;94634.25;5154821;27;20050;-71
2022/03/26 09:27:48;;;;;;;204.60;168.13;;;;;;;14.34;34.83;94635.16;5154816;27;20031;-71
2022/03/26 09:30:17;;;;;;;204.32;167.25;;;;;;;14.42;33.93;94628.47;5162065;27;20562;-72
2022/03/26 09:32:46;;;;;;;199.05;165.73;;;;;;;14.49;34.15;94631.03;5160190;27;20399;-71
2022/03/26 09:35:13;;;;;;;205.52;169.98;;;;;;;14.41;33.08;94623.50;5159272;27;20034;-71
2022/03/26 09:37:40;;;;;;;216.60;182.23;;;;;;;14.49;33.42;94628.34;5156612;27;20303;-71
2022/03/26 09:40:08;;;;;;;218.90;177.40;;;;;;;14.53;32.94;94625.59;5162902;27;20034;-72
2022/03/26 09:42:36;;;;;;;214.88;177.63;;;;;;;14.48;33.92;94634.13;5153594;27;20440;-70
2022/03/26 09:45:05;;;;;;;208.18;172.23;;;;;;;14.54;34.20;94629.03;5162600;27;20065;-74
2022/03/26 09:47:31;;;;;;;213.07;172.15;;;;;;;14.52;32.94;94624.06;5158690;27;20339;-74
2022/03/26 09:49:57;;;;;;;199.85;161.77;;;;;;;14.65;32.82;94622.25;5161101;27;20027;-70
2022/03/26 09:52:24;;;;;;;207.57;170.00;;;;;;;14.62;33.38;94620.41;5155843;27;20043;-73
2022/03/26 09:54:49;;;;;;;212.60;169.57;;;;;;;14.66;33.99;94628.41;5144477;27;20050;-71
2022/03/26 09:57:15;;;;;;;210.40;171.48;;;;;;;14.65;34.03;94622.25;5156959;27;20645;-70
2022/03/26 09:59:40;;;;;;;215.07;176.05;;;;;;;14.68;34.31;94623.34;5136369;27;20038;-71
2022/03/26 10:02:06;;;;;;;212.30;172.88;;;;;;;14.68;33.29;94624.13;5163457;27;20438;-74
2022/03/26 10:04:39;;;;;;;213.27;174.82;;;;;;;14.63;33.39;94621.16;5163837;27;20106;-71
2022/03/26 10:07:05;;;;;;;213.27;172.25;;;;;;;14.75;34.03;94621.28;5152566;27;20034;-74
2022/03/26 10:09:39;;;;;;;208.23;170.40;;;;;;;14.71;34.79;94617.91;5138703;27;20179;-66
2022/03/26 10:12:19;;;;;;;219.43;175.85;;;;;;;15.06;35.87;94629.06;5148756;27;20740;-66
2022/03/26 10:14:47;;;;;;;215.15;177.98;;;;;;;15.22;36.55;94614.84;5149360;27;20050;-70
2022/03/26 10:17:18;;;;;;;222.48;181.93;;;;;;;15.80;37.90;94626.53;5136015;27;20047;-71
2022/03/26 10:20:02;;;;;;;212.55;177.20;;;;;;;16.18;37.87;94621.31;5155667;27;20034;-68
2022/03/26 10:22:38;;;;;;;314.88;281.02;;;;;;;17.35;37.46;94606.31;5160692;27;20047;-71
2022/03/26 10:25:08;;;;;;;277.70;247.90;;;;;;;18.03;35.40;94613.00;5153964;27;20046;-72
2022/03/26 10:27:43;;;;;;;317.83;286.40;;;;;;;18.16;34.10;94608.28;5136099;27;20031;-72
2022/03/26 10:30:17;;;;;;;259.40;232.73;;;;;;;18.45;34.58;94605.31;5155389;27;20495;-73
2022/03/26 10:32:48;;;;;;;269.20;243.05;;;;;;;18.50;34.80;94609.41;5143553;27;20056;-71
2022/03/26 10:35:27;;;;;;;339.77;308.33;;;;;;;18.16;37.00;94611.00;5156219;27;20066;-73
2022/03/26 10:37:56;;;;;;;309.67;279.73;;;;;;;18.21;35.81;94607.69;5157332;27;20379;-71
2022/03/26 10:40:34;;;;;;;308.95;280.17;;;;;;;17.85;32.23;94591.19;5161350;27;20650;-72
2022/03/26 10:43:01;;;;;;;306.35;277.95;;;;;;;17.38;31.68;94611.63;5156868;27;20069;-72
2022/03/26 10:45:29;;;;;;;307.20;279.17;;;;;;;17.53;30.85;94594.94;5152954;27;20142;-72
2022/03/26 10:47:57;;;;;;;293.55;266.27;;;;;;;17.19;29.85;94595.63;5160830;27;20034;-72
2022/03/26 10:50:25;;;;;;;287.48;260.23;;;;;;;16.88;30.40;94596.19;5145117;27;20053;-72
2022/03/26 10:52:55;;;;;;;302.52;274.52;;;;;;;16.89;29.89;94611.22;5156840;27;20042;-72
2022/03/26 10:55:21;;;;;;;298.80;271.55;;;;;;;16.67;30.17;94605.69;5157954;27;20038;-72
2022/03/26 10:57:48;;;;;;;304.23;275.77;;;;;;;16.58;30.08;94597.44;5149558;27;20581;-72
2022/03/26 11:00:18;;;;;;;297.23;269.58;;;;;;;16.89;29.64;94596.94;5150445;27;20035;-71
2022/03/26 11:02:44;;;;;;;293.58;264.95;;;;;;;16.23;30.40;94593.03;5152467;27;20026;-71